createdAt,value
2023-03-12T00:00:48.833Z,32.92
2023-03-12T00:03:17.656Z,26.10
2023-03-12T00:05:53.400Z,21.30
2023-03-12T00:08:20.108Z,24.25
2023-03-12T00:10:53.618Z,27.13
2023-03-12T00:13:27.560Z,37.13
2023-03-12T00:15:57.342Z,29.85
2023-03-12T00:18:27.001Z,26.52
2023-03-12T00:20:55.013Z,22.42
2023-03-12T00:23:26.043Z,27.77
2023-03-12T00:26:03.814Z,29.80
2023-03-12T00:28:31.306Z,33.85
2023-03-12T00:30:58.817Z,25.67
2023-03-12T00:33:26.276Z,25.80
2023-03-12T00:35:53.976Z,25.27
2023-03-12T00:38:23.400Z,24.13
2023-03-12T00:40:50.137Z,22.83
2023-03-12T00:43:16.790Z,23.40
2023-03-12T00:45:43.413Z,26.08
2023-03-12T00:48:10.234Z,23.25
2023-03-12T00:50:36.970Z,29.73
2023-03-12T00:53:12.836Z,25.30
2023-03-12T00:55:44.412Z,26.10
2023-03-12T00:58:11.232Z,24.27
2023-03-12T01:00:38.029Z,28.15
2023-03-12T01:03:04.856Z,24.67
2023-03-12T01:05:34.105Z,25.88
2023-03-12T01:08:01.803Z,25.02
2023-03-12T01:10:30.410Z,26.42
2023-03-12T01:13:02.132Z,25.40
2023-03-12T01:15:32.071Z,26.67
2023-03-12T01:17:58.812Z,29.80
2023-03-12T01:20:25.964Z,26.17
2023-03-12T01:23:00.523Z,20.73
2023-03-12T01:25:27.370Z,25.33
2023-03-12T01:27:54.309Z,28.75
2023-03-12T01:30:20.929Z,24.60
2023-03-12T01:32:47.746Z,22.48
2023-03-12T01:35:15.776Z,25.17
2023-03-12T01:37:42.545Z,27.35
2023-03-12T01:40:16.193Z,19.20
2023-03-12T01:42:52.731Z,28.85
2023-03-12T01:46:13.876Z,20.17
2023-03-12T01:49:04.539Z,19.10
2023-03-12T01:51:39.604Z,18.48
2023-03-12T01:54:11.860Z,27.30
2023-03-12T01:56:42.344Z,20.80
2023-03-12T01:59:20.372Z,22.05
2023-03-12T02:01:48.498Z,10.60
2023-03-12T02:04:20.813Z,18.08
2023-03-12T02:06:54.885Z,16.58
2023-03-12T02:09:22.130Z,13.98
2023-03-12T02:11:56.665Z,16.77
2023-03-12T02:14:29.472Z,22.25
2023-03-12T02:16:59.935Z,16.75
2023-03-12T02:19:40.531Z,14.95
2023-03-12T02:22:08.042Z,22.75
2023-03-12T02:24:52.761Z,13.85
2023-03-12T02:27:21.351Z,19.45
2023-03-12T02:29:54.811Z,17.83
2023-03-12T02:32:28.130Z,20.95
2023-03-12T02:34:57.538Z,17.25
2023-03-12T02:37:24.251Z,13.02
2023-03-12T02:39:58.351Z,14.20
2023-03-12T02:42:25.570Z,24.80
2023-03-12T02:44:52.404Z,23.17
2023-03-12T02:47:19.288Z,13.90
2023-03-12T02:49:49.118Z,23.13
2023-03-12T02:52:24.596Z,24.13
2023-03-12T02:54:58.444Z,15.27
2023-03-12T02:57:27.857Z,21.75
2023-03-12T02:59:56.114Z,27.92
2023-03-12T03:02:23.090Z,15.13
2023-03-12T03:04:50.228Z,14.48
2023-03-12T03:07:17.390Z,18.80
2023-03-12T03:10:00.032Z,22.23
2023-03-12T03:12:26.809Z,28.17
2023-03-12T03:15:02.373Z,27.55
2023-03-12T03:17:29.610Z,24.08
2023-03-12T03:19:56.634Z,26.10
2023-03-12T03:22:23.404Z,21.40
2023-03-12T03:24:50.172Z,21.83
2023-03-12T03:27:16.970Z,25.20
2023-03-12T03:29:46.442Z,24.88
2023-03-12T03:32:22.795Z,24.13
2023-03-12T03:34:55.434Z,27.02
2023-03-12T03:37:22.085Z,21.92
2023-03-12T03:39:48.744Z,24.55
2023-03-12T03:42:15.441Z,23.10
2023-03-12T03:44:42.303Z,21.88
2023-03-12T03:47:11.056Z,21.30
2023-03-12T03:49:39.053Z,23.25
2023-03-12T03:52:06.595Z,27.50
2023-03-12T03:54:34.922Z,21.52
2023-03-12T03:57:04.761Z,27.88
2023-03-12T03:59:39.580Z,22.83
2023-03-12T04:02:06.954Z,19.70
2023-03-12T04:04:33.780Z,25.42
2023-03-12T04:07:00.582Z,17.70
2023-03-12T04:09:40.856Z,20.98
2023-03-12T04:12:10.760Z,19.17
2023-03-12T04:14:40.420Z,20.83
2023-03-12T04:17:09.312Z,31.80
2023-03-12T04:19:36.444Z,21.90
2023-03-12T04:22:07.215Z,22.63
2023-03-12T04:24:34.065Z,19.20
2023-03-12T04:27:00.778Z,27.15
2023-03-12T04:29:27.916Z,31.75
2023-03-12T04:32:01.092Z,17.88
2023-03-12T04:34:34.920Z,20.88
2023-03-12T04:37:16.584Z,22.10
2023-03-12T04:39:46.826Z,24.55
2023-03-12T04:42:13.962Z,25.75
2023-03-12T04:44:41.196Z,22.63
2023-03-12T04:47:07.900Z,17.73
2023-03-12T04:49:37.819Z,30.17
2023-03-12T04:52:07.958Z,20.30
2023-03-12T04:54:34.784Z,20.02
2023-03-12T04:57:01.520Z,16.48
2023-03-12T04:59:28.330Z,17.70
2023-03-12T05:01:58.481Z,23.25
2023-03-12T05:04:25.207Z,26.25
2023-03-12T05:06:54.384Z,25.55
2023-03-12T05:09:21.206Z,20.23
2023-03-12T05:11:48.306Z,23.77
2023-03-12T05:14:25.700Z,19.48
2023-03-12T05:16:54.197Z,20.35
2023-03-12T05:19:25.047Z,22.27
2023-03-12T05:21:58.942Z,24.10
2023-03-12T05:24:29.316Z,27.13
2023-03-12T05:26:56.054Z,27.52
2023-03-12T05:29:22.750Z,18.95
2023-03-12T05:31:57.735Z,17.13
2023-03-12T05:34:28.259Z,17.58
2023-03-12T05:36:54.996Z,22.52
2023-03-12T05:39:22.024Z,23.83
2023-03-12T05:41:48.757Z,25.85
2023-03-12T05:44:16.247Z,25.80
2023-03-12T05:46:43.846Z,16.90
2023-03-12T05:49:12.543Z,23.42
2023-03-12T05:51:39.227Z,20.45
2023-03-12T05:54:06.098Z,20.60
2023-03-12T05:56:40.956Z,23.83
2023-03-12T05:59:18.564Z,17.92
2023-03-12T06:01:45.245Z,12.93
2023-03-12T06:04:23.644Z,11.48
2023-03-12T06:06:50.279Z,17.73
2023-03-12T06:09:16.975Z,23.75
2023-03-12T06:11:49.872Z,22.92
2023-03-12T06:14:16.659Z,16.60
2023-03-12T06:16:43.450Z,17.25
2023-03-12T06:19:19.927Z,17.65
2023-03-12T06:21:47.139Z,23.17
2023-03-12T06:24:23.711Z,11.32
2023-03-12T06:26:50.709Z,16.42
2023-03-12T06:29:17.539Z,15.40
2023-03-12T06:31:52.659Z,14.77
2023-03-12T06:34:20.697Z,13.82
2023-03-12T06:36:47.394Z,15.18
2023-03-12T06:39:19.952Z,14.95
2023-03-12T06:41:49.920Z,17.45
2023-03-12T06:44:19.391Z,20.00
2023-03-12T06:46:52.425Z,13.82
2023-03-12T06:49:19.671Z,12.45
2023-03-12T06:51:46.876Z,11.98
2023-03-12T06:54:13.559Z,18.40
2023-03-12T06:56:43.413Z,12.05
2023-03-12T06:59:12.565Z,16.83
2023-03-12T07:01:39.307Z,17.70
2023-03-12T07:04:06.057Z,13.45
2023-03-12T07:06:32.933Z,17.63
2023-03-12T07:09:02.005Z,14.85
2023-03-12T07:11:28.747Z,17.85
2023-03-12T07:13:55.492Z,18.40
2023-03-12T07:16:28.801Z,16.90
2023-03-12T07:18:59.265Z,15.98
2023-03-12T07:21:30.075Z,11.05
2023-03-12T07:26:37.279Z,14.93
2023-03-12T07:29:09.449Z,20.13
2023-03-12T07:31:36.429Z,17.75
2023-03-12T07:34:06.754Z,20.90
2023-03-12T07:36:34.569Z,25.80
2023-03-12T07:39:01.348Z,12.48
2023-03-12T07:41:30.514Z,12.52
2023-03-12T07:43:57.269Z,10.02
2023-03-12T07:46:26.914Z,17.10
2023-03-12T07:48:53.719Z,16.85
2023-03-12T07:51:20.556Z,15.20
2023-03-12T07:53:51.711Z,12.38
2023-03-12T07:56:18.699Z,8.15
2023-03-12T07:58:45.678Z,11.20
2023-03-12T08:01:20.102Z,13.35
2023-03-12T08:03:50.441Z,12.95
2023-03-12T08:06:17.248Z,11.48
2023-03-12T08:08:44.290Z,12.05
2023-03-12T08:11:11.296Z,11.35
2023-03-12T08:13:40.217Z,9.02
2023-03-12T08:16:12.715Z,10.00
2023-03-12T08:18:39.662Z,10.55
2023-03-12T08:21:06.495Z,12.00
2023-03-12T08:23:41.753Z,10.02
2023-03-12T08:26:08.777Z,9.13
2023-03-12T08:28:35.847Z,10.48
2023-03-12T08:31:02.869Z,16.08
2023-03-12T08:33:32.937Z,12.93
2023-03-12T08:35:59.762Z,12.93
2023-03-12T08:38:34.979Z,6.80
2023-03-12T08:41:02.058Z,12.52
2023-03-12T08:43:29.650Z,11.88
2023-03-12T08:45:58.913Z,11.25
2023-03-12T08:48:38.923Z,17.30
2023-03-12T08:51:09.775Z,9.23
2023-03-12T08:53:37.275Z,8.43
2023-03-12T08:56:07.164Z,7.05
2023-03-12T08:58:49.815Z,10.15
2023-03-12T09:01:16.599Z,7.68
2023-03-12T09:03:43.414Z,9.60
2023-03-12T09:06:19.155Z,7.50
2023-03-12T09:08:47.209Z,5.93
2023-03-12T09:11:17.545Z,8.77
2023-03-12T09:14:26.521Z,7.53
2023-03-12T09:16:34.866Z,6.13
2023-03-12T09:19:01.833Z,10.60
2023-03-12T09:21:29.044Z,9.50
2023-03-12T09:23:56.082Z,12.82
2023-03-12T09:26:22.898Z,12.77
2023-03-12T09:28:57.971Z,14.10
2023-03-12T09:31:25.348Z,15.05
2023-03-12T09:33:57.469Z,9.02
2023-03-12T09:36:24.574Z,5.57
2023-03-12T09:38:51.268Z,14.98
2023-03-12T09:41:29.970Z,10.48
2023-03-12T09:44:12.240Z,11.98
2023-03-12T09:46:45.083Z,8.75
2023-03-12T09:49:34.751Z,14.43
2023-03-12T09:52:34.554Z,9.57
2023-03-12T09:55:16.864Z,13.75
2023-03-12T09:57:45.004Z,9.15
2023-03-12T10:00:15.603Z,8.65
2023-03-12T10:03:20.177Z,10.20
2023-03-12T10:06:06.955Z,12.70
2023-03-12T10:08:39.040Z,7.10
2023-03-12T10:11:34.130Z,13.80
2023-03-12T10:14:24.136Z,9.10
2023-03-12T10:17:16.872Z,11.50
2023-03-12T10:20:17.388Z,8.90
2023-03-12T10:23:02.933Z,9.45
2023-03-12T10:26:02.152Z,6.10
2023-03-12T10:28:42.830Z,11.02
2023-03-12T10:31:43.329Z,8.60
2023-03-12T10:34:30.985Z,9.23
2023-03-12T10:37:03.085Z,15.40
2023-03-12T10:39:29.762Z,18.33
2023-03-12T10:42:01.458Z,11.13
2023-03-12T10:44:29.120Z,17.90
2023-03-12T10:47:24.386Z,12.35
2023-03-12T10:49:54.330Z,19.38
2023-03-12T10:52:24.166Z,9.80
2023-03-12T10:54:59.243Z,16.38
2023-03-12T10:57:40.634Z,15.77
2023-03-12T11:00:18.552Z,13.38
2023-03-12T11:02:46.607Z,20.65
2023-03-12T11:05:34.245Z,10.07
2023-03-12T11:08:13.322Z,42.33
2023-03-12T11:10:49.224Z,22.58
2023-03-12T11:13:43.964Z,16.58
2023-03-12T11:16:10.694Z,18.15
2023-03-12T11:18:38.866Z,24.25
2023-03-12T11:21:10.000Z,13.65
2023-03-12T11:24:09.557Z,25.70
2023-03-12T11:26:54.528Z,20.85
2023-03-12T11:29:37.071Z,26.85
2023-03-12T11:32:25.944Z,22.70
2023-03-12T11:34:53.339Z,19.88
2023-03-12T11:37:27.238Z,16.10
2023-03-12T11:40:16.349Z,19.33
2023-03-12T11:43:07.643Z,16.15
2023-03-12T11:45:58.308Z,19.67
2023-03-12T11:48:43.553Z,21.80
2023-03-12T11:52:17.273Z,16.83
2023-03-12T11:55:18.296Z,15.15
2023-03-12T11:58:24.588Z,14.43
2023-03-12T12:01:08.113Z,17.30
2023-03-12T12:03:56.209Z,17.52
2023-03-12T12:06:54.404Z,20.92
2023-03-12T12:09:34.783Z,16.90
2023-03-12T12:12:36.626Z,14.85
2023-03-12T12:15:04.065Z,17.23
2023-03-12T12:17:33.683Z,14.68
2023-03-12T12:20:38.425Z,11.10
2023-03-12T12:23:15.925Z,13.13
2023-03-12T12:26:15.353Z,16.13
2023-03-12T12:29:22.148Z,15.52
2023-03-12T12:31:57.423Z,16.13
2023-03-12T12:35:02.022Z,12.65
2023-03-12T12:37:53.423Z,14.85
2023-03-12T12:40:34.677Z,16.10
2023-03-12T12:43:18.708Z,19.38
2023-03-12T12:45:48.686Z,17.95
2023-03-12T12:48:53.669Z,14.90
2023-03-12T12:51:31.485Z,13.80
2023-03-12T12:54:20.340Z,13.65
2023-03-12T12:57:04.632Z,13.35
2023-03-12T12:59:58.013Z,16.70
2023-03-12T13:02:35.168Z,17.58
2023-03-12T13:05:24.586Z,17.63
2023-03-12T13:07:51.390Z,12.68
2023-03-12T13:11:02.503Z,15.93
2023-03-12T13:14:35.029Z,18.48
2023-03-12T13:17:30.346Z,14.90
2023-03-12T13:20:08.630Z,14.85
2023-03-12T13:22:49.744Z,11.75
2023-03-12T13:25:49.653Z,15.70
2023-03-12T13:28:51.829Z,17.92
2023-03-12T13:34:00.049Z,14.85
2023-03-12T13:36:31.283Z,15.43
2023-03-12T13:39:07.040Z,17.23
2023-03-12T13:41:45.915Z,18.88
2023-03-12T13:44:25.460Z,18.52
2023-03-12T13:47:01.401Z,13.32
2023-03-12T13:50:05.144Z,20.00
2023-03-12T13:52:47.069Z,21.33
2023-03-12T13:58:10.396Z,14.57
2023-03-12T14:00:48.418Z,19.55
2023-03-12T14:03:27.419Z,13.35
2023-03-12T14:06:11.113Z,14.75
2023-03-12T14:08:53.144Z,15.23
2023-03-12T14:11:45.463Z,19.02
2023-03-12T14:14:28.664Z,12.45
2023-03-12T14:17:10.979Z,14.00
2023-03-12T14:19:51.685Z,17.70
2023-03-12T14:22:33.775Z,14.00
2023-03-12T14:25:12.895Z,17.35
2023-03-12T14:27:55.025Z,15.60
2023-03-12T14:30:51.406Z,15.60
2023-03-12T14:33:25.102Z,19.85
2023-03-12T14:36:03.668Z,12.82
2023-03-12T14:38:32.973Z,15.00
2023-03-12T14:41:14.132Z,20.13
2023-03-12T14:43:43.599Z,17.75
2023-03-12T14:46:16.983Z,21.55
2023-03-12T14:48:47.226Z,12.73
2023-03-12T14:51:41.739Z,14.63
2023-03-12T14:54:18.303Z,14.57
2023-03-12T14:56:56.275Z,15.25
2023-03-12T14:59:40.896Z,14.88
2023-03-12T15:05:18.103Z,25.65
2023-03-12T15:07:49.192Z,10.90
2023-03-12T15:10:30.717Z,17.13
2023-03-12T15:13:02.712Z,17.92
2023-03-12T15:15:40.371Z,9.93
2023-03-12T15:18:38.277Z,10.27
2023-03-12T15:21:11.271Z,15.68
2023-03-12T15:23:39.435Z,12.55
2023-03-12T15:26:10.366Z,13.18
2023-03-12T15:28:40.541Z,13.30
2023-03-12T15:31:25.821Z,21.63
2023-03-12T15:34:11.464Z,12.68
2023-03-12T15:36:48.741Z,17.00
2023-03-12T15:39:15.412Z,11.88
2023-03-12T15:42:02.678Z,10.95
2023-03-12T15:44:54.625Z,13.65
2023-03-12T15:47:48.097Z,13.57
2023-03-12T15:50:27.734Z,13.48
2023-03-12T15:53:31.206Z,10.57
2023-03-12T15:59:32.069Z,12.38
2023-03-12T16:02:01.560Z,7.95
2023-03-12T16:04:48.579Z,8.75
2023-03-12T16:07:17.682Z,10.27
2023-03-12T16:09:47.465Z,8.73
2023-03-12T16:12:17.116Z,12.18
2023-03-12T16:15:01.903Z,14.23
2023-03-12T16:17:31.335Z,11.55
2023-03-12T16:19:57.939Z,11.02
2023-03-12T16:22:27.885Z,13.55
2023-03-12T16:24:56.593Z,17.75
2023-03-12T16:27:32.544Z,11.20
2023-03-12T16:29:59.782Z,10.07
2023-03-12T16:32:38.708Z,8.48
2023-03-12T16:35:35.520Z,11.27
2023-03-12T16:38:12.298Z,9.52
2023-03-12T16:40:43.546Z,13.30
2023-03-12T16:43:25.320Z,7.32
2023-03-12T16:48:39.744Z,7.47
2023-03-12T16:51:21.268Z,11.00
2023-03-12T16:53:55.843Z,19.27
2023-03-12T16:56:32.458Z,10.25
2023-03-12T16:59:04.929Z,11.18
2023-03-12T17:01:38.006Z,19.50
2023-03-12T17:04:10.591Z,13.27
2023-03-12T17:06:40.578Z,9.93
2023-03-12T17:09:15.862Z,9.52
2023-03-12T17:11:45.186Z,10.18
2023-03-12T17:14:43.292Z,6.35
2023-03-12T17:17:10.114Z,6.80
2023-03-12T17:22:40.651Z,11.88
2023-03-12T17:25:19.467Z,12.50
2023-03-12T17:27:46.211Z,9.85
2023-03-12T17:30:20.364Z,9.88
2023-03-12T17:32:49.044Z,7.90
2023-03-12T17:35:18.964Z,9.77
2023-03-12T17:37:48.466Z,11.18
2023-03-12T17:40:18.285Z,11.63
2023-03-12T17:42:45.016Z,10.77
2023-03-12T17:45:11.807Z,12.38
2023-03-12T17:47:44.385Z,10.15
2023-03-12T17:50:12.943Z,8.18
2023-03-12T17:52:39.708Z,14.32
2023-03-12T17:55:13.939Z,16.00
2023-03-12T17:57:40.887Z,17.38
2023-03-12T18:00:13.232Z,9.82
2023-03-12T18:03:04.831Z,10.75
2023-03-12T18:05:42.796Z,13.43
2023-03-12T18:08:17.663Z,14.63
2023-03-12T18:13:57.598Z,9.77
2023-03-12T18:16:27.321Z,9.45
2023-03-12T18:18:54.116Z,13.38
2023-03-12T18:21:39.105Z,10.70
2023-03-12T18:24:13.958Z,13.48
2023-03-12T18:26:48.071Z,11.82
2023-03-12T18:29:29.557Z,13.32
2023-03-12T18:32:09.544Z,11.77
2023-03-12T18:37:23.047Z,12.27
2023-03-12T18:39:49.688Z,11.75
2023-03-12T18:42:21.819Z,14.48
2023-03-12T18:44:51.466Z,20.17
2023-03-12T18:47:19.008Z,12.60
2023-03-12T18:49:55.074Z,9.55
2023-03-12T18:52:24.734Z,11.25
2023-03-12T18:54:51.475Z,10.73
2023-03-12T18:57:18.248Z,12.57
2023-03-12T18:59:50.206Z,16.60
2023-03-12T19:02:17.059Z,7.82
2023-03-12T19:04:44.247Z,13.50
2023-03-12T19:07:11.236Z,15.40
2023-03-12T19:09:37.959Z,14.45
2023-03-12T19:12:04.981Z,15.75
2023-03-12T19:14:31.790Z,17.92
2023-03-12T19:16:58.509Z,10.45
2023-03-12T19:19:25.199Z,7.38
2023-03-12T19:21:52.097Z,13.15
2023-03-12T19:24:18.842Z,14.20
2023-03-12T19:26:45.620Z,10.73
2023-03-12T19:29:17.271Z,8.68
2023-03-12T19:31:46.230Z,9.27
2023-03-12T19:34:17.440Z,11.07
2023-03-12T19:36:46.884Z,12.65
2023-03-12T19:39:21.066Z,12.43
2023-03-12T19:41:48.771Z,10.50
2023-03-12T19:44:15.524Z,14.00
2023-03-12T19:46:52.506Z,15.15
2023-03-12T19:52:11.533Z,13.40
2023-03-12T19:54:38.162Z,10.98
2023-03-12T19:57:09.256Z,17.20
2023-03-12T19:59:36.141Z,12.15
2023-03-12T20:02:07.272Z,17.13
2023-03-12T20:04:37.168Z,13.60
2023-03-12T20:07:03.944Z,15.30
2023-03-12T20:09:45.846Z,16.88
2023-03-12T20:12:12.551Z,12.30
2023-03-12T20:14:48.441Z,19.98
2023-03-12T20:17:18.177Z,11.77
2023-03-12T20:19:47.941Z,10.85
2023-03-12T20:22:15.923Z,11.97
2023-03-12T20:24:49.655Z,10.80
2023-03-12T20:27:25.795Z,13.85
2023-03-12T20:32:40.431Z,11.30
2023-03-12T20:35:07.307Z,13.75
2023-03-12T20:37:33.971Z,14.95
2023-03-12T20:40:08.512Z,9.52
2023-03-12T20:42:50.610Z,13.15
2023-03-12T20:47:43.946Z,12.52
2023-03-12T20:50:13.929Z,14.32
2023-03-12T20:52:40.616Z,9.80
2023-03-12T20:55:13.531Z,18.25
2023-03-12T21:00:32.683Z,14.30
2023-03-12T21:03:02.420Z,15.77
2023-03-12T21:05:32.542Z,14.73
2023-03-12T21:07:59.304Z,12.73
2023-03-12T21:10:31.476Z,13.70
2023-03-12T21:13:04.128Z,19.10
2023-03-12T21:15:33.895Z,22.98
2023-03-12T21:18:03.663Z,20.95
2023-03-12T21:20:36.493Z,17.08
2023-03-12T21:23:09.793Z,20.42
2023-03-12T21:25:42.907Z,10.82
2023-03-12T21:28:10.747Z,16.08
2023-03-12T21:30:46.539Z,18.50
2023-03-12T21:33:45.152Z,18.73
2023-03-12T21:39:33.142Z,16.15
2023-03-12T21:42:05.706Z,19.98
2023-03-12T21:44:35.154Z,28.48
2023-03-12T21:47:01.929Z,17.40
2023-03-12T21:49:28.585Z,14.13
2023-03-12T21:51:58.294Z,20.15
2023-03-12T21:54:35.792Z,13.75
2023-03-12T21:57:06.010Z,16.67
2023-03-12T21:59:32.913Z,15.25
2023-03-12T22:02:02.794Z,17.65
2023-03-12T22:07:19.139Z,19.67
2023-03-12T22:10:00.514Z,15.25
2023-03-12T22:12:30.398Z,20.38
2023-03-12T22:14:56.998Z,17.95
2023-03-12T22:20:13.495Z,19.33
2023-03-12T22:22:42.239Z,19.85
2023-03-12T22:25:09.137Z,17.17
2023-03-12T22:27:44.054Z,18.52
2023-03-12T22:30:23.318Z,16.10
2023-03-12T22:32:52.310Z,23.00
2023-03-12T22:35:25.775Z,19.65
2023-03-12T22:37:55.864Z,13.32
2023-03-12T22:40:22.593Z,18.02
2023-03-12T22:43:06.208Z,22.02
2023-03-12T22:45:38.030Z,15.45
2023-03-12T22:48:04.966Z,26.00
2023-03-12T22:50:32.021Z,20.15
2023-03-12T22:52:59.206Z,22.25
2023-03-12T22:55:26.214Z,30.90
2023-03-12T22:57:53.270Z,24.98
2023-03-12T23:00:39.064Z,18.65
2023-03-12T23:03:29.067Z,26.83
2023-03-12T23:08:40.191Z,38.03
2023-03-12T23:11:18.161Z,26.92
2023-03-12T23:13:54.247Z,21.92
2023-03-12T23:16:23.268Z,26.92
2023-03-12T23:18:57.896Z,27.40
2023-03-12T23:21:25.124Z,24.95
2023-03-12T23:23:54.898Z,24.25
2023-03-12T23:26:24.628Z,26.35
2023-03-12T23:31:50.047Z,20.58
2023-03-12T23:34:22.775Z,24.83
2023-03-12T23:39:54.871Z,23.63
2023-03-12T23:42:27.426Z,23.35
2023-03-12T23:44:54.169Z,25.27
2023-03-12T23:47:24.038Z,26.35
2023-03-12T23:49:56.569Z,29.30
2023-03-12T23:52:26.805Z,22.15
2023-03-12T23:54:53.503Z,20.90
2023-03-12T23:57:26.389Z,23.45
2023-03-12T23:59:56.065Z,25.92
